createdAt,value
2022-09-20T00:04:56.632Z,77.77
2022-09-20T00:10:07.648Z,77.89
2022-09-20T00:15:20.871Z,77.79
2022-09-20T00:20:37.218Z,77.99
2022-09-20T00:25:58.359Z,77.86
2022-09-20T00:31:17.690Z,77.96
2022-09-20T00:36:45.306Z,77.94
2022-09-20T00:41:58.207Z,77.97
2022-09-20T00:47:25.143Z,78.26
2022-09-20T00:52:40.983Z,78.21
2022-09-20T00:57:50.139Z,77.98
2022-09-20T01:03:09.179Z,78.06
2022-09-20T01:08:16.791Z,78.17
2022-09-20T01:13:28.833Z,78.06
2022-09-20T01:18:46.155Z,78.07
2022-09-20T01:24:09.284Z,77.92
2022-09-20T01:29:31.130Z,77.86
2022-09-20T01:34:55.555Z,78.08
2022-09-20T01:40:12.487Z,77.85
2022-09-20T01:45:31.907Z,78.11
2022-09-20T01:51:24.799Z,77.92
2022-09-20T01:56:55.061Z,77.90
2022-09-20T02:02:40.357Z,77.91
2022-09-20T02:08:19.341Z,77.77
2022-09-20T02:13:54.241Z,77.98
2022-09-20T02:19:43.100Z,78.01
2022-09-20T02:25:32.963Z,78.03
2022-09-20T02:30:52.534Z,77.89
2022-09-20T02:36:18.396Z,78.01
2022-09-20T02:42:04.542Z,78.12
2022-09-20T02:47:23.051Z,78.24
2022-09-20T02:52:40.127Z,78.15
2022-09-20T02:58:21.470Z,77.89
2022-09-20T03:03:43.562Z,78.11
2022-09-20T03:08:59.954Z,78.30
2022-09-20T03:14:18.072Z,78.22
2022-09-20T03:20:02.137Z,78.17
2022-09-20T03:25:36.074Z,78.23
2022-09-20T03:31:02.044Z,78.13
2022-09-20T03:36:40.304Z,77.94
2022-09-20T03:41:58.704Z,78.34
2022-09-20T03:47:18.880Z,78.15
2022-09-20T03:52:49.439Z,78.38
2022-09-20T03:58:19.495Z,78.18
2022-09-20T04:03:46.261Z,78.32
2022-09-20T04:09:26.282Z,78.39
2022-09-20T04:14:41.943Z,78.40
2022-09-20T04:19:56.060Z,78.37
2022-09-20T04:25:15.115Z,78.56
2022-09-20T04:30:29.745Z,78.54
2022-09-20T04:36:02.459Z,78.63
2022-09-20T04:41:34.220Z,78.68
2022-09-20T04:47:25.632Z,78.67
2022-09-20T04:58:36.460Z,78.73
2022-09-20T05:04:30.209Z,78.72
2022-09-20T05:10:22.013Z,78.78
2022-09-20T05:15:45.748Z,78.96
2022-09-20T05:21:30.883Z,78.80
2022-09-20T05:27:04.638Z,78.88
2022-09-20T05:32:29.471Z,78.96
2022-09-20T05:37:47.890Z,79.11
2022-09-20T05:43:21.102Z,79.20
2022-09-20T05:48:45.812Z,79.58
2022-09-20T05:54:18.998Z,79.79
2022-09-20T05:59:56.817Z,79.37
2022-09-20T06:05:17.343Z,78.86
2022-09-20T06:10:53.288Z,79.14
2022-09-20T06:16:19.059Z,79.14
2022-09-20T06:21:42.868Z,79.16
2022-09-20T06:26:57.925Z,78.55
2022-09-20T06:32:08.663Z,78.30
2022-09-20T06:37:47.417Z,78.37
2022-09-20T06:43:04.905Z,77.88
2022-09-20T06:48:20.866Z,77.92
2022-09-20T06:53:36.393Z,77.69
2022-09-20T06:59:03.809Z,77.64
2022-09-20T07:04:22.388Z,77.30
2022-09-20T07:09:39.810Z,77.05
2022-09-20T07:15:34.309Z,76.81
2022-09-20T07:20:55.933Z,76.47
2022-09-20T07:26:21.721Z,76.03
2022-09-20T07:31:39.954Z,75.44
2022-09-20T07:37:07.556Z,74.97
2022-09-20T07:42:26.447Z,74.89
2022-09-20T07:47:35.653Z,74.80
2022-09-20T07:52:49.306Z,74.48
2022-09-20T07:58:18.443Z,74.48
2022-09-20T08:03:50.392Z,73.72
2022-09-20T08:08:56.741Z,73.54
2022-09-20T08:14:24.916Z,72.81
2022-09-20T08:19:35.189Z,71.89
2022-09-20T08:24:45.541Z,71.58
2022-09-20T08:29:54.955Z,70.98
2022-09-20T08:35:22.723Z,70.13
2022-09-20T08:40:33.097Z,69.15
2022-09-20T08:45:42.374Z,68.28
2022-09-20T08:50:52.924Z,67.63
2022-09-20T08:56:00.781Z,67.17
2022-09-20T09:01:32.727Z,65.92
2022-09-20T09:06:44.155Z,66.38
2022-09-20T09:11:56.030Z,66.16
2022-09-20T09:17:04.263Z,65.19
2022-09-20T09:22:37.035Z,65.57
2022-09-20T09:28:31.873Z,65.36
2022-09-20T09:33:47.191Z,64.47
2022-09-20T09:39:23.695Z,64.25
2022-09-20T09:44:50.463Z,64.20
2022-09-20T09:50:06.117Z,64.18
2022-09-20T09:55:53.065Z,64.88
2022-09-20T10:01:05.901Z,64.73
2022-09-20T10:06:34.160Z,64.79
2022-09-20T10:11:58.783Z,64.97
2022-09-20T10:17:21.038Z,65.18
2022-09-20T10:23:34.517Z,64.67
2022-09-20T10:29:26.409Z,64.46
2022-09-20T10:35:06.337Z,63.83
2022-09-20T10:40:49.146Z,63.65
2022-09-20T10:46:30.666Z,63.31
2022-09-20T10:52:19.022Z,63.04
2022-09-20T10:58:09.891Z,62.86
2022-09-20T11:03:33.288Z,62.90
2022-09-20T11:08:42.088Z,62.74
2022-09-20T11:13:59.596Z,62.42
2022-09-20T11:19:26.954Z,62.53
2022-09-20T11:25:03.013Z,62.20
2022-09-20T11:30:19.144Z,61.97
2022-09-20T11:35:34.395Z,61.60
2022-09-20T11:40:55.686Z,61.46
2022-09-20T11:46:08.031Z,61.23
2022-09-20T11:51:49.718Z,61.09
2022-09-20T11:56:59.836Z,61.19
2022-09-20T12:02:17.194Z,61.06
2022-09-20T12:07:28.400Z,60.85
2022-09-20T12:12:41.720Z,60.66
2022-09-20T12:18:15.827Z,60.28
2022-09-20T12:24:04.079Z,60.47
2022-09-20T12:29:52.656Z,60.59
2022-09-20T12:35:03.592Z,60.12
2022-09-20T12:40:20.230Z,59.79
2022-09-20T12:45:33.159Z,59.99
2022-09-20T12:50:56.511Z,59.91
2022-09-20T12:56:28.270Z,59.83
2022-09-20T13:01:47.098Z,60.02
2022-09-20T13:07:34.604Z,59.79
2022-09-20T13:12:43.677Z,59.84
2022-09-20T13:18:04.661Z,59.94
2022-09-20T13:23:27.007Z,60.06
2022-09-20T13:28:41.717Z,59.70
2022-09-20T13:33:53.894Z,59.46
2022-09-20T13:39:01.227Z,59.30
2022-09-20T13:44:28.952Z,59.28
2022-09-20T13:49:45.999Z,59.23
2022-09-20T13:55:28.728Z,59.03
2022-09-20T14:00:38.454Z,59.14
2022-09-20T14:05:53.062Z,59.17
2022-09-20T14:11:18.016Z,59.17
2022-09-20T14:16:40.799Z,58.74
2022-09-20T14:21:49.277Z,58.71
2022-09-20T14:27:21.587Z,58.79
2022-09-20T14:47:26.165Z,58.63
2022-09-20T14:53:22.867Z,58.42
2022-09-20T14:59:30.819Z,58.69
2022-09-20T15:05:04.929Z,58.83
2022-09-20T15:10:32.580Z,58.90
2022-09-20T15:22:59.694Z,59.16
2022-09-20T15:29:14.577Z,58.69
2022-09-20T15:34:43.709Z,58.68
2022-09-20T15:40:07.005Z,58.66
2022-09-20T15:45:24.270Z,58.71
2022-09-20T15:50:32.792Z,58.88
2022-09-20T15:55:41.417Z,58.79
2022-09-20T16:00:50.124Z,58.76
2022-09-20T16:06:04.629Z,58.79
2022-09-20T16:11:17.247Z,58.76
2022-09-20T16:16:29.339Z,58.74
2022-09-20T16:21:39.889Z,58.90
2022-09-20T16:26:48.399Z,58.86
2022-09-20T16:31:58.416Z,58.99
2022-09-20T16:37:08.366Z,59.08
2022-09-20T16:42:26.182Z,59.26
2022-09-20T16:47:34.233Z,59.32
2022-09-20T16:52:40.590Z,59.38
2022-09-20T16:57:52.191Z,59.59
2022-09-20T17:03:00.285Z,59.63
2022-09-20T17:08:28.707Z,59.82
2022-09-20T17:13:47.401Z,59.94
2022-09-20T17:19:06.726Z,60.03
2022-09-20T17:24:20.095Z,60.21
2022-09-20T17:29:48.398Z,60.34
2022-09-20T17:34:55.744Z,60.57
2022-09-20T17:40:03.338Z,60.65
2022-09-20T17:45:22.524Z,60.78
2022-09-20T17:50:57.847Z,60.98
2022-09-20T17:56:06.730Z,61.03
2022-09-20T18:01:39.649Z,61.13
2022-09-20T18:07:08.433Z,61.25
2022-09-20T18:12:21.682Z,61.45
2022-09-20T18:17:54.659Z,61.54
2022-09-20T18:23:08.422Z,61.82
2022-09-20T18:28:48.853Z,62.07
2022-09-20T18:34:12.924Z,62.10
2022-09-20T18:39:42.038Z,62.33
2022-09-20T18:45:20.802Z,62.32
2022-09-20T18:50:35.620Z,62.39
2022-09-20T18:55:55.525Z,62.43
2022-09-20T19:01:27.172Z,62.53
2022-09-20T19:06:50.599Z,62.68
2022-09-20T19:12:17.066Z,62.93
2022-09-20T19:17:42.998Z,63.18
2022-09-20T19:23:31.166Z,63.32
2022-09-20T19:28:57.539Z,63.50
2022-09-20T19:34:30.447Z,63.77
2022-09-20T19:39:58.461Z,63.90
2022-09-20T19:45:29.378Z,64.21
2022-09-20T19:50:45.558Z,64.34
2022-09-20T19:55:57.493Z,64.58
2022-09-20T20:01:11.766Z,64.53
2022-09-20T20:06:26.996Z,64.61
2022-09-20T20:11:44.325Z,64.88
2022-09-20T20:17:05.612Z,64.94
2022-09-20T20:22:30.774Z,65.16
2022-09-20T20:27:42.933Z,65.37
2022-09-20T20:33:04.756Z,65.61
2022-09-20T20:38:37.221Z,65.71
2022-09-20T20:43:57.484Z,65.85
2022-09-20T20:49:05.942Z,65.93
2022-09-20T20:54:29.788Z,66.23
2022-09-20T20:59:56.681Z,66.33
2022-09-20T21:05:08.381Z,66.40
2022-09-20T21:10:28.911Z,66.50
2022-09-20T21:15:49.169Z,66.62
2022-09-20T21:21:17.723Z,66.90
2022-09-20T21:26:32.455Z,67.00
2022-09-20T21:32:00.618Z,67.05
2022-09-20T21:37:11.160Z,67.30
2022-09-20T21:42:29.155Z,67.34
2022-09-20T21:47:57.313Z,67.42
2022-09-20T21:53:17.372Z,67.63
2022-09-20T21:59:13.052Z,67.78
2022-09-20T22:04:34.657Z,67.81
2022-09-20T22:10:01.979Z,68.03
2022-09-20T22:15:30.950Z,68.10
2022-09-20T22:20:49.757Z,68.12
2022-09-20T22:26:10.769Z,68.16
2022-09-20T22:31:45.802Z,68.42
2022-09-20T22:37:14.302Z,68.40
2022-09-20T22:42:27.372Z,68.64
2022-09-20T22:47:57.132Z,68.52
2022-09-20T22:53:08.785Z,68.79
2022-09-20T22:58:48.467Z,68.83
2022-09-20T23:04:19.206Z,68.94
2022-09-20T23:09:40.480Z,69.17
2022-09-20T23:15:21.280Z,69.14
2022-09-20T23:20:50.171Z,69.21
2022-09-20T23:26:08.939Z,69.25
2022-09-20T23:31:28.234Z,69.32
2022-09-20T23:36:56.269Z,69.42
2022-09-20T23:42:15.174Z,69.56
2022-09-20T23:47:22.765Z,69.57
2022-09-20T23:52:30.490Z,69.62
2022-09-20T23:57:51.145Z,69.69
